Parks, Louisiana
Current Conditions -  °F | °C
As of 10:53 AM on Saturday 22 Nov 2014 (Local Time) from KLFT Reporting Station
Clear Clear  
Wind Chill: 66°   Ceiling: Unl
Heat Index: 66°   Visibility: 10mi
Dew Point: 56°   Wind: 5mph
Humidity: 70%   Direction: NA
Pressure: 30.13"   Gusts: NA
Location:  30.2235°N, 91.7772°W
Report Text: KLFT 221653Z VRB04KT 10SM CLR 19/13 A3013 RMK AO2 SLP202 T01890133
Loading
Personal Weather Stations






























Interactive Weather Map New forecast layout! Learn more

10-Day Weather Forecast

Advertisements
Track Severe Weather on mobile